Time;durP1;ratioP1;P1;durP2;ratioP2;P2;SDS_P1;SDS_P2;PMS_P1;PMS_P2;Temp;Humidity;BMP_temperature;BMP_pressure;BME280_temperature;BME280_humidity;BME280_pressure;Samples;Min_cycle;Max_cycle;Signal;HPM_P1;HPM_P2
2024/03/12 00:00:28;;;;;;;7.70;2.53;;;7.40;99.90;;;;;;5058016;28;20207;-82
2024/03/12 00:02:55;;;;;;;0.40;0.40;;;7.30;99.90;;;;;;5058109;28;20695;-82
2024/03/12 00:05:22;;;;;;;0.75;0.75;;;7.30;99.90;;;;;;5058898;28;20188;-81
2024/03/12 00:07:50;;;;;;;7.72;4.18;;;7.30;99.90;;;;;;5059060;28;20225;-82
2024/03/12 00:10:19;;;;;;;2.47;2.33;;;7.40;99.90;;;;;;5058036;28;20195;-82
2024/03/12 00:12:48;;;;;;;4.80;3.60;;;7.40;99.90;;;;;;5058583;28;20222;-82
2024/03/12 00:15:18;;;;;;;0.90;0.90;;;7.40;99.90;;;;;;5057997;28;20241;-82
2024/03/12 00:17:44;;;;;;;2.05;1.95;;;7.40;99.90;;;;;;5060000;28;20257;-82
2024/03/12 00:20:24;;;;;;;5.85;3.97;;;7.40;99.90;;;;;;5062711;28;20199;-83
2024/03/12 00:22:51;;;;;;;3.25;2.95;;;7.40;99.90;;;;;;5063219;28;20573;-81
2024/03/12 00:25:19;;;;;;;9.13;7.70;;;7.40;99.90;;;;;;5062333;28;20686;-82
2024/03/12 00:27:46;;;;;;;3.85;2.72;;;7.40;99.90;;;;;;5061293;28;20233;-82
2024/03/12 00:30:14;;;;;;;5.00;4.35;;;7.50;99.90;;;;;;5062299;28;20198;-82
2024/03/12 00:32:43;;;;;;;1.88;1.77;;;7.50;99.90;;;;;;5062076;28;20196;-82
2024/03/12 00:35:10;;;;;;;9.75;5.75;;;7.60;99.90;;;;;;5062049;28;20250;-82
2024/03/12 00:37:39;;;;;;;13.82;12.60;;;7.60;99.90;;;;;;5062653;28;20214;-82
2024/03/12 00:40:11;;;;;;;2.40;2.20;;;7.60;99.90;;;;;;5067789;28;20195;-80
2024/03/12 00:42:39;;;;;;;5.80;3.33;;;7.60;99.90;;;;;;5074908;28;20206;-79
2024/03/12 00:45:07;;;;;;;17.17;12.10;;;7.60;99.90;;;;;;5078309;28;20187;-80
2024/03/12 00:47:34;;;;;;;15.25;7.82;;;7.60;99.90;;;;;;5076214;28;20207;-80
2024/03/12 00:50:07;;;;;;;18.15;8.68;;;7.50;99.90;;;;;;5071159;28;20195;-81
2024/03/12 00:52:34;;;;;;;11.02;6.32;;;7.60;99.90;;;;;;5055811;28;20206;-81
2024/03/12 00:55:00;;;;;;;4.43;4.05;;;7.50;99.90;;;;;;5055486;28;20211;-80
2024/03/12 00:57:27;;;;;;;4.32;4.03;;;7.50;99.90;;;;;;5055592;28;20219;-80
2024/03/12 00:59:54;;;;;;;7.65;4.38;;;7.60;99.90;;;;;;5055926;28;20202;-80
2024/03/12 01:02:25;;;;;;;5.78;3.85;;;7.50;99.90;;;;;;5055810;28;20286;-80
2024/03/12 01:04:52;;;;;;;13.27;5.32;;;7.50;99.90;;;;;;5055803;28;20191;-81
2024/03/12 01:07:21;;;;;;;3.90;2.83;;;7.50;99.90;;;;;;5055564;28;20270;-80
2024/03/12 01:09:48;;;;;;;27.67;11.93;;;7.50;99.90;;;;;;5057245;28;20310;-81
2024/03/12 01:12:16;;;;;;;3.70;3.53;;;7.60;99.90;;;;;;5061233;28;20202;-79
2024/03/12 01:14:44;;;;;;;7.88;3.35;;;7.50;99.90;;;;;;5081211;28;20201;-82
2024/03/12 01:17:13;;;;;;;0.93;0.93;;;7.60;99.90;;;;;;5082466;28;20225;-81
2024/03/12 01:19:41;;;;;;;9.85;7.22;;;7.60;99.90;;;;;;5082639;28;20221;-81
2024/03/12 01:22:09;;;;;;;4.28;3.38;;;7.60;99.90;;;;;;5082948;28;20194;-80
2024/03/12 01:24:40;;;;;;;9.07;4.00;;;7.60;99.90;;;;;;5082183;28;20221;-80
2024/03/12 01:27:07;;;;;;;16.15;9.02;;;7.60;99.90;;;;;;5080803;28;20650;-80
2024/03/12 01:29:35;;;;;;;11.98;6.80;;;7.50;99.90;;;;;;5081608;28;20573;-81
2024/03/12 01:32:01;;;;;;;4.97;4.55;;;7.50;99.90;;;;;;5081527;28;20710;-82
2024/03/12 01:34:28;;;;;;;20.25;9.75;;;7.60;99.90;;;;;;5082261;28;20608;-83
2024/03/12 01:36:57;;;;;;;18.48;11.48;;;7.50;99.90;;;;;;5082707;28;20214;-81
2024/03/12 01:39:26;;;;;;;7.70;7.25;;;7.50;99.90;;;;;;5082093;28;20199;-82
2024/03/12 01:41:54;;;;;;;3.60;3.15;;;7.50;99.90;;;;;;5081839;28;20197;-83
2024/03/12 01:44:21;;;;;;;5.95;5.43;;;7.50;99.90;;;;;;5082184;28;20201;-80
2024/03/12 01:46:48;;;;;;;8.55;4.38;;;7.50;99.90;;;;;;5083014;28;20197;-83
2024/03/12 01:49:15;;;;;;;11.45;5.82;;;7.50;99.90;;;;;;5083031;28;20205;-82
2024/03/12 01:51:42;;;;;;;1.95;1.85;;;7.50;99.90;;;;;;5082554;28;20194;-82
2024/03/12 01:54:09;;;;;;;9.30;8.60;;;7.50;99.90;;;;;;5080126;28;20198;-82
2024/03/12 01:56:36;;;;;;;14.18;7.10;;;7.50;99.90;;;;;;5083116;28;20218;-82
2024/03/12 01:59:05;;;;;;;6.78;6.03;;;7.50;99.90;;;;;;5082778;28;20760;-81
2024/03/12 02:01:33;;;;;;;6.82;6.43;;;7.50;99.90;;;;;;5083181;28;20194;-82
2024/03/12 02:04:00;;;;;;;3.55;3.35;;;7.50;99.90;;;;;;5083225;28;20194;-82
2024/03/12 02:06:27;;;;;;;36.78;11.57;;;7.50;99.90;;;;;;5082771;28;20186;-82
2024/03/12 02:08:54;;;;;;;14.65;9.85;;;7.50;99.90;;;;;;5083561;28;20220;-81
2024/03/12 02:11:21;;;;;;;3.90;3.60;;;7.50;99.90;;;;;;5082950;28;20692;-82
2024/03/12 02:13:51;;;;;;;6.18;2.25;;;7.40;99.90;;;;;;5084632;28;20206;-83
2024/03/12 02:16:19;;;;;;;4.60;3.03;;;7.50;99.90;;;;;;5084798;28;20240;-82
2024/03/12 02:18:46;;;;;;;7.38;6.90;;;7.50;99.90;;;;;;5084588;28;20222;-82
2024/03/12 02:21:12;;;;;;;6.75;5.55;;;7.50;99.90;;;;;;5083815;28;20596;-83
2024/03/12 02:23:43;;;;;;;0.88;0.88;;;7.40;99.90;;;;;;5082532;28;20205;-80
2024/03/12 02:26:10;;;;;;;24.48;11.13;;;7.40;99.90;;;;;;5084033;28;20592;-83
2024/03/12 02:28:37;;;;;;;6.90;3.15;;;7.40;99.90;;;;;;5083907;28;20218;-82
2024/03/12 02:31:05;;;;;;;2.17;1.23;;;7.40;99.90;;;;;;5082487;28;20201;-82
2024/03/12 02:33:32;;;;;;;10.85;6.20;;;7.40;99.90;;;;;;5083564;28;20202;-82
2024/03/12 02:35:59;;;;;;;3.45;1.50;;;7.40;99.90;;;;;;5083353;28;20218;-81
2024/03/12 02:38:28;;;;;;;3.00;2.80;;;7.40;99.90;;;;;;5083392;28;20218;-81
2024/03/12 02:40:58;;;;;;;17.63;13.25;;;7.40;99.90;;;;;;5083248;28;20213;-83
2024/03/12 02:43:24;;;;;;;15.55;8.85;;;7.40;99.90;;;;;;5083048;28;20197;-82
2024/03/12 02:45:51;;;;;;;6.57;4.82;;;7.30;99.90;;;;;;5082187;28;20198;-82
2024/03/12 02:48:20;;;;;;;9.50;4.78;;;7.20;99.90;;;;;;5081852;28;20229;-82
2024/03/12 02:50:47;;;;;;;13.98;8.20;;;7.30;99.90;;;;;;5082014;28;20558;-82
2024/03/12 02:53:14;;;;;;;1.60;1.50;;;7.30;99.90;;;;;;5081680;28;20194;-81
2024/03/12 02:55:41;;;;;;;3.05;2.80;;;7.30;99.90;;;;;;5082251;28;20241;-82
2024/03/12 02:58:09;;;;;;;27.10;16.80;;;7.30;99.90;;;;;;5082617;28;20214;-82
2024/03/12 03:00:36;;;;;;;6.88;4.03;;;7.30;99.90;;;;;;5081807;28;20198;-82
2024/03/12 03:03:03;;;;;;;9.15;5.85;;;7.30;99.90;;;;;;5081481;28;20206;-82
2024/03/12 03:05:30;;;;;;;18.67;7.05;;;7.30;99.90;;;;;;5081279;28;20195;-82
2024/03/12 03:07:58;;;;;;;1.60;1.50;;;7.30;99.90;;;;;;5081127;28;20219;-82
2024/03/12 03:10:25;;;;;;;6.05;5.10;;;7.30;99.90;;;;;;5081022;28;20197;-83
2024/03/12 03:12:52;;;;;;;19.23;8.88;;;7.30;99.90;;;;;;5080699;28;20543;-83
2024/03/12 03:15:23;;;;;;;3.63;3.33;;;7.30;99.90;;;;;;5079392;28;20198;-83
2024/03/12 03:17:50;;;;;;;1.95;1.85;;;7.30;99.90;;;;;;5083917;28;20210;-79
2024/03/12 03:20:18;;;;;;;6.43;5.20;;;7.20;99.90;;;;;;5078477;28;20206;-82
2024/03/12 03:22:45;;;;;;;9.90;8.95;;;7.20;99.90;;;;;;5072735;28;20227;-82
2024/03/12 03:25:14;;;;;;;0.40;0.40;;;7.30;99.90;;;;;;5082617;28;20185;-80
2024/03/12 03:27:41;;;;;;;13.30;11.98;;;7.30;99.90;;;;;;5089681;28;20218;-82
2024/03/12 03:30:17;;;;;;;4.10;3.60;;;7.30;99.90;;;;;;5075748;28;20253;-81
2024/03/12 03:32:45;;;;;;;6.47;4.60;;;7.30;99.90;;;;;;5075356;28;20785;-81
2024/03/12 03:35:13;;;;;;;1.20;1.20;;;7.20;99.90;;;;;;5075255;28;20191;-80
2024/03/12 03:37:42;;;;;;;1.58;1.48;;;7.30;99.90;;;;;;5075528;28;20228;-82
2024/03/12 03:40:17;;;;;;;0.73;0.73;;;7.30;99.90;;;;;;5075252;28;20202;-81
2024/03/12 03:42:45;;;;;;;3.42;3.08;;;7.30;99.90;;;;;;5075517;28;20197;-80
2024/03/12 03:45:12;;;;;;;9.35;8.40;;;7.30;99.90;;;;;;5074974;28;20194;-80
2024/03/12 03:47:39;;;;;;;0.40;0.40;;;7.30;99.90;;;;;;5074541;28;20214;-80
2024/03/12 03:50:10;;;;;;;12.80;6.93;;;7.30;99.90;;;;;;5075637;28;20202;-81
2024/03/12 03:52:38;;;;;;;0.50;0.50;;;7.30;99.90;;;;;;5072616;28;20285;-82
2024/03/12 03:55:06;;;;;;;4.57;4.32;;;7.30;99.90;;;;;;5074638;28;20194;-81
2024/03/12 03:57:33;;;;;;;3.88;2.50;;;7.20;99.90;;;;;;5074355;28;20225;-81
2024/03/12 04:00:12;;;;;;;3.00;2.90;;;7.20;99.90;;;;;;5074179;28;20194;-82
2024/03/12 04:02:39;;;;;;;4.68;4.47;;;7.30;99.90;;;;;;5073893;28;20730;-82
2024/03/12 04:05:09;;;;;;;1.98;1.88;;;7.20;99.90;;;;;;5074858;28;20229;-81
2024/03/12 04:07:39;;;;;;;8.20;7.55;;;7.20;99.90;;;;;;5072785;28;20207;-81
2024/03/12 04:10:10;;;;;;;0.40;0.40;;;7.20;99.90;;;;;;5074095;28;20198;-82
2024/03/12 04:12:39;;;;;;;16.55;8.43;;;7.30;99.90;;;;;;5073533;28;20225;-81
2024/03/12 04:15:07;;;;;;;2.15;0.93;;;7.20;99.90;;;;;;5073933;28;20199;-81
2024/03/12 04:17:33;;;;;;;6.20;5.38;;;7.30;99.90;;;;;;5073613;28;20221;-80
2024/03/12 04:20:00;;;;;;;5.18;4.05;;;7.20;99.90;;;;;;5073869;28;20194;-80
2024/03/12 04:22:28;;;;;;;4.85;4.55;;;7.20;99.90;;;;;;5069817;28;20202;-81
2024/03/12 04:24:55;;;;;;;1.23;1.23;;;7.20;99.90;;;;;;5060760;28;20199;-81
2024/03/12 04:27:21;;;;;;;3.63;3.42;;;7.20;99.90;;;;;;5052746;28;20737;-83
2024/03/12 04:29:48;;;;;;;9.32;4.88;;;7.20;99.90;;;;;;5072551;28;20604;-81
2024/03/12 04:32:15;;;;;;;7.10;4.10;;;7.20;99.90;;;;;;5073030;28;20195;-81
2024/03/12 04:34:44;;;;;;;1.85;1.75;;;7.20;99.90;;;;;;5072925;28;20237;-81
2024/03/12 04:37:12;;;;;;;6.22;3.70;;;7.20;99.90;;;;;;5059784;28;20763;-81
2024/03/12 04:39:42;;;;;;;3.60;2.05;;;7.30;99.90;;;;;;5053920;28;20260;-81
2024/03/12 04:42:10;;;;;;;18.02;10.35;;;7.30;99.90;;;;;;5066403;28;20205;-81
2024/03/12 04:44:37;;;;;;;13.82;7.22;;;7.20;99.90;;;;;;5063561;28;20570;-81
2024/03/12 04:47:04;;;;;;;8.48;5.20;;;7.20;99.90;;;;;;5052989;28;20192;-82
2024/03/12 04:49:31;;;;;;;5.78;5.47;;;7.20;99.90;;;;;;5052621;28;20191;-80
2024/03/12 04:51:57;;;;;;;10.18;7.65;;;7.20;99.90;;;;;;5053592;28;20247;-80
2024/03/12 04:54:24;;;;;;;2.33;2.05;;;7.20;99.90;;;;;;5053234;28;20198;-80
2024/03/12 04:56:57;;;;;;;10.13;4.88;;;7.10;99.90;;;;;;5053178;28;20215;-81
2024/03/12 04:59:24;;;;;;;5.20;2.38;;;7.10;99.90;;;;;;5052991;28;20602;-80
2024/03/12 05:01:51;;;;;;;5.35;4.85;;;7.10;99.90;;;;;;5061410;28;20222;-81
2024/03/12 05:04:22;;;;;;;5.45;4.97;;;7.10;99.90;;;;;;5061705;28;20195;-81
2024/03/12 05:06:48;;;;;;;3.78;3.55;;;7.10;99.90;;;;;;5075408;28;20202;-81
2024/03/12 05:09:17;;;;;;;2.45;2.30;;;7.20;99.90;;;;;;5069348;28;20192;-81
2024/03/12 05:11:46;;;;;;;12.68;8.45;;;7.20;99.90;;;;;;5066138;28;20206;-81
2024/03/12 05:14:14;;;;;;;25.48;5.57;;;7.10;99.90;;;;;;5074765;28;20582;-81
2024/03/12 05:16:41;;;;;;;3.55;3.25;;;7.20;99.90;;;;;;5074938;28;20588;-81
2024/03/12 05:19:10;;;;;;;6.07;5.28;;;7.20;99.90;;;;;;5067611;28;20221;-83
2024/03/12 05:21:37;;;;;;;0.40;0.40;;;7.20;99.90;;;;;;5073825;28;20205;-81
2024/03/12 05:24:05;;;;;;;2.20;1.80;;;7.10;99.90;;;;;;5068950;28;20198;-83
2024/03/12 05:26:36;;;;;;;5.20;3.05;;;7.20;99.90;;;;;;5070554;28;20191;-82
2024/03/12 05:29:03;;;;;;;1.25;1.05;;;7.10;99.90;;;;;;5079274;28;20229;-82
2024/03/12 05:31:34;;;;;;;1.50;1.40;;;7.10;99.90;;;;;;5071111;28;20202;-82
2024/03/12 05:34:02;;;;;;;12.80;3.80;;;7.10;99.90;;;;;;5078862;28;20241;-82
2024/03/12 05:36:40;;;;;;;2.05;1.95;;;7.10;99.90;;;;;;5079222;28;20214;-81
2024/03/12 05:39:18;;;;;;;2.88;2.70;;;7.10;99.90;;;;;;5078406;28;20217;-82
2024/03/12 05:41:49;;;;;;;23.95;8.45;;;7.10;99.90;;;;;;5079204;28;20194;-83
2024/03/12 05:49:45;;;;;;;6.82;4.88;;;7.10;99.90;;;;;;5071204;28;20202;-83
2024/03/12 05:52:13;;;;;;;6.05;5.53;;;7.10;99.90;;;;;;5078911;28;20569;-83
2024/03/12 05:54:40;;;;;;;8.52;6.35;;;7.10;99.90;;;;;;5071131;28;20250;-82
2024/03/12 05:57:07;;;;;;;1.90;1.70;;;7.00;99.90;;;;;;5078729;28;20272;-81
2024/03/12 05:59:34;;;;;;;2.95;1.55;;;7.00;99.90;;;;;;5072179;28;20236;-84
2024/03/12 06:02:04;;;;;;;4.45;2.58;;;7.00;99.90;;;;;;5078832;28;20191;-82
2024/03/12 06:04:32;;;;;;;4.45;4.13;;;7.00;99.90;;;;;;5079016;28;20190;-83
2024/03/12 06:07:00;;;;;;;0.70;0.55;;;7.00;99.90;;;;;;5078878;28;20191;-82
2024/03/12 06:09:27;;;;;;;4.00;3.33;;;7.00;99.90;;;;;;5079507;28;20190;-83
2024/03/12 06:11:54;;;;;;;3.10;3.00;;;7.00;99.90;;;;;;5078943;28;20194;-83
2024/03/12 06:14:25;;;;;;;8.98;5.13;;;7.00;99.90;;;;;;5078465;28;20194;-83
2024/03/12 06:16:51;;;;;;;3.97;3.55;;;7.00;99.90;;;;;;5079147;28;20288;-81
2024/03/12 06:19:21;;;;;;;3.38;3.08;;;7.00;99.90;;;;;;5069453;28;20206;-82
2024/03/12 06:21:47;;;;;;;3.65;2.30;;;7.00;99.90;;;;;;5057649;28;20274;-81
2024/03/12 06:24:14;;;;;;;1.13;1.13;;;7.00;99.90;;;;;;5056849;28;20199;-82
2024/03/12 06:26:42;;;;;;;3.25;2.10;;;7.00;99.90;;;;;;5057883;28;20227;-82
2024/03/12 06:29:08;;;;;;;6.82;2.17;;;7.00;99.90;;;;;;5057957;28;20780;-83
2024/03/12 06:31:35;;;;;;;3.55;3.35;;;7.00;99.90;;;;;;5059240;28;20609;-83
2024/03/12 06:34:04;;;;;;;1.67;1.58;;;7.10;99.90;;;;;;5057531;28;20197;-83
2024/03/12 06:36:32;;;;;;;3.35;3.15;;;7.10;99.90;;;;;;5060046;28;20218;-83
2024/03/12 06:39:00;;;;;;;2.42;2.22;;;7.10;99.90;;;;;;5059349;28;20225;-82
2024/03/12 06:41:31;;;;;;;2.15;1.10;;;7.10;99.90;;;;;;5059844;28;20267;-83
2024/03/12 06:43:58;;;;;;;6.22;5.82;;;7.00;99.90;;;;;;5060231;28;20221;-84
2024/03/12 06:46:25;;;;;;;0.60;0.60;;;7.00;99.90;;;;;;5058882;28;20674;-83
2024/03/12 06:48:52;;;;;;;17.95;5.10;;;7.10;99.90;;;;;;5059574;28;20215;-82
2024/03/12 06:51:19;;;;;;;1.75;1.70;;;7.10;99.90;;;;;;5064012;28;20195;-83
2024/03/12 06:53:48;;;;;;;3.95;3.72;;;7.10;99.90;;;;;;5075982;28;20194;-84
2024/03/12 06:56:17;;;;;;;0.43;0.40;;;7.10;99.90;;;;;;5079682;28;20201;-83
2024/03/12 06:58:45;;;;;;;3.40;3.15;;;7.10;99.90;;;;;;5069478;28;20298;-83
2024/03/12 07:01:15;;;;;;;7.72;3.90;;;7.10;99.90;;;;;;5060231;28;20217;-83
2024/03/12 07:03:42;;;;;;;4.72;2.72;;;7.10;99.90;;;;;;5070415;28;20214;-83
2024/03/12 07:06:11;;;;;;;2.45;2.35;;;7.10;99.90;;;;;;5080175;28;20661;-83
2024/03/12 07:08:39;;;;;;;10.25;3.15;;;7.00;99.90;;;;;;5083171;28;20227;-80
2024/03/12 07:11:10;;;;;;;5.05;4.75;;;7.00;99.90;;;;;;5095180;28;20198;-81
2024/03/12 07:13:39;;;;;;;4.65;4.32;;;7.10;99.90;;;;;;5095272;28;20194;-80
2024/03/12 07:16:07;;;;;;;6.20;3.35;;;7.00;99.90;;;;;;5092442;28;20562;-82
2024/03/12 07:18:34;;;;;;;1.98;1.80;;;7.00;99.90;;;;;;5088814;28;20225;-81
2024/03/12 07:21:02;;;;;;;4.93;4.63;;;7.00;99.90;;;;;;5072982;28;20200;-82
2024/03/12 07:23:29;;;;;;;0.65;0.65;;;7.00;99.90;;;;;;5072951;28;20198;-83
2024/03/12 07:25:58;;;;;;;4.30;4.00;;;7.10;99.90;;;;;;5074346;28;20202;-83
2024/03/12 07:28:27;;;;;;;2.78;1.45;;;7.10;99.90;;;;;;5060266;28;20223;-83
2024/03/12 07:30:55;;;;;;;0.90;0.82;;;7.10;99.90;;;;;;5071727;28;20204;-82
2024/03/12 07:33:23;;;;;;;1.52;1.38;;;7.10;99.90;;;;;;5071076;28;20238;-81
2024/03/12 07:35:50;;;;;;;3.42;3.13;;;7.10;99.90;;;;;;5073208;28;20234;-81
2024/03/12 07:38:17;;;;;;;6.93;3.83;;;7.10;99.90;;;;;;5067022;28;20223;-82
2024/03/12 07:40:44;;;;;;;2.45;2.25;;;7.10;99.90;;;;;;5067739;28;20650;-81
2024/03/12 07:43:11;;;;;;;6.43;3.95;;;7.10;99.90;;;;;;5076809;28;20198;-81
2024/03/12 07:45:53;;;;;;;2.58;2.50;;;7.00;99.90;;;;;;5076268;28;20194;-82
2024/03/12 07:48:23;;;;;;;3.30;2.55;;;7.00;99.90;;;;;;5045987;28;20297;-81
2024/03/12 07:50:50;;;;;;;4.07;0.88;;;7.00;99.90;;;;;;5078563;28;20194;-82
2024/03/12 07:53:18;;;;;;;4.25;3.92;;;6.90;99.90;;;;;;5078907;28;20194;-82
2024/03/12 07:55:45;;;;;;;17.98;8.82;;;6.90;99.90;;;;;;5079825;28;20190;-82
2024/03/12 07:58:12;;;;;;;4.70;3.72;;;6.90;99.90;;;;;;5078554;28;20218;-82
2024/03/12 08:00:48;;;;;;;8.85;6.82;;;6.90;99.90;;;;;;5079686;28;20197;-82
2024/03/12 08:03:16;;;;;;;3.55;3.20;;;6.90;99.90;;;;;;5079990;28;20194;-82
2024/03/12 08:05:43;;;;;;;0.73;0.73;;;6.90;99.90;;;;;;5079996;28;20195;-81
2024/03/12 08:08:12;;;;;;;9.25;4.90;;;7.00;99.90;;;;;;5079371;28;20236;-81
2024/03/12 08:10:39;;;;;;;8.05;4.85;;;7.00;99.90;;;;;;5079568;28;20194;-82
2024/03/12 08:13:07;;;;;;;1.77;1.20;;;7.00;99.90;;;;;;5079320;28;20199;-81
2024/03/12 08:15:35;;;;;;;7.65;1.85;;;7.10;99.90;;;;;;5079456;28;20195;-82
2024/03/12 08:18:05;;;;;;;9.48;4.93;;;7.10;99.90;;;;;;5079601;28;20218;-80
2024/03/12 08:20:32;;;;;;;4.95;4.75;;;7.20;99.90;;;;;;5079490;28;20198;-82
2024/03/12 08:22:59;;;;;;;1.15;1.05;;;7.20;99.90;;;;;;5079837;28;20562;-82
2024/03/12 08:25:26;;;;;;;3.13;2.90;;;7.20;99.90;;;;;;5079549;28;20220;-82
2024/03/12 08:27:53;;;;;;;8.85;5.85;;;7.20;99.90;;;;;;5079223;28;20217;-82
2024/03/12 08:30:22;;;;;;;0.60;0.60;;;7.20;99.90;;;;;;5078163;28;20277;-81
2024/03/12 08:32:50;;;;;;;4.97;2.70;;;7.20;99.90;;;;;;5078129;28;20205;-82
2024/03/12 08:35:18;;;;;;;18.92;8.65;;;7.20;99.90;;;;;;5079651;28;20194;-82
2024/03/12 08:37:46;;;;;;;10.07;5.60;;;7.10;99.90;;;;;;5078571;28;20246;-81
2024/03/12 08:40:14;;;;;;;2.55;2.45;;;7.20;99.90;;;;;;5083019;28;20198;-82
2024/03/12 08:42:41;;;;;;;5.32;4.65;;;7.20;99.90;;;;;;5082263;28;20200;-83
2024/03/12 08:45:14;;;;;;;4.30;2.05;;;7.20;99.90;;;;;;5082515;28;20198;-80
2024/03/12 08:47:41;;;;;;;1.27;1.23;;;7.20;99.90;;;;;;5081974;28;20211;-81
2024/03/12 08:50:10;;;;;;;3.85;2.63;;;7.20;99.90;;;;;;5083770;28;20186;-82
2024/03/12 08:52:38;;;;;;;5.00;4.10;;;7.30;99.90;;;;;;5082255;28;20194;-83
2024/03/12 08:55:06;;;;;;;4.85;4.00;;;7.30;99.90;;;;;;5081444;28;20194;-82
2024/03/12 08:57:33;;;;;;;10.95;4.10;;;7.20;99.90;;;;;;5081161;28;20227;-81
2024/03/12 09:00:00;;;;;;;1.73;1.60;;;7.20;99.90;;;;;;5079610;28;20194;-82
2024/03/12 09:02:28;;;;;;;2.45;1.85;;;7.20;99.90;;;;;;5080824;28;20205;-81
2024/03/12 09:04:56;;;;;;;1.38;1.23;;;7.20;99.90;;;;;;5078772;28;20258;-83
2024/03/12 09:07:22;;;;;;;0.90;0.90;;;7.30;99.90;;;;;;5081049;28;20218;-83
2024/03/12 09:09:50;;;;;;;12.77;5.88;;;7.30;99.90;;;;;;5080308;28;20201;-82
2024/03/12 09:12:18;;;;;;;2.42;2.30;;;7.30;99.90;;;;;;5080114;28;20699;-82
2024/03/12 09:14:47;;;;;;;11.18;8.05;;;7.20;99.90;;;;;;5080335;28;20198;-82
2024/03/12 09:17:14;;;;;;;3.20;2.97;;;7.10;99.90;;;;;;5080961;28;20221;-80
2024/03/12 09:19:43;;;;;;;1.50;1.40;;;7.10;99.90;;;;;;5078758;28;20198;-78
2024/03/12 09:22:12;;;;;;;4.95;4.03;;;7.10;99.90;;;;;;5078098;28;20278;-81
2024/03/12 09:24:40;;;;;;;3.35;2.45;;;7.10;99.90;;;;;;5079098;28;20320;-81
2024/03/12 09:27:08;;;;;;;16.00;4.30;;;7.20;99.90;;;;;;5078042;28;20229;-80
2024/03/12 09:29:35;;;;;;;0.93;0.80;;;7.20;99.90;;;;;;5076991;28;20683;-80
2024/03/12 09:32:03;;;;;;;2.17;2.08;;;7.20;99.90;;;;;;5078982;28;20202;-82
2024/03/12 09:34:33;;;;;;;4.05;3.75;;;7.20;99.90;;;;;;5079088;28;20293;-80
2024/03/12 09:37:00;;;;;;;3.63;2.28;;;7.20;99.90;;;;;;5080117;28;20194;-80
2024/03/12 09:39:27;;;;;;;5.03;3.95;;;7.20;99.90;;;;;;5079685;28;20210;-81
2024/03/12 09:41:55;;;;;;;8.77;5.75;;;7.20;99.90;;;;;;5078787;28;20190;-81
2024/03/12 09:44:23;;;;;;;4.95;4.65;;;7.30;99.90;;;;;;5079946;28;20198;-80
2024/03/12 09:46:51;;;;;;;16.60;10.77;;;7.30;99.90;;;;;;5079648;28;20205;-81
2024/03/12 09:49:19;;;;;;;5.50;5.13;;;7.40;99.90;;;;;;5081815;28;20286;-79
2024/03/12 09:51:45;;;;;;;1.63;1.52;;;7.40;99.90;;;;;;5081072;28;20190;-81
2024/03/12 09:54:17;;;;;;;8.40;6.22;;;7.40;99.90;;;;;;5080391;28;20692;-80
2024/03/12 09:56:44;;;;;;;21.10;8.07;;;7.50;99.90;;;;;;5081366;28;20197;-82
2024/03/12 09:59:11;;;;;;;4.43;3.33;;;7.50;99.90;;;;;;5077080;28;20268;-82
2024/03/12 10:01:39;;;;;;;3.58;3.35;;;7.40;99.90;;;;;;5070633;28;20198;-83
2024/03/12 10:04:06;;;;;;;6.18;4.97;;;7.40;99.90;;;;;;5071518;28;20199;-82
2024/03/12 10:06:33;;;;;;;5.63;1.38;;;7.50;99.90;;;;;;5070608;28;20199;-82
2024/03/12 10:09:00;;;;;;;3.63;2.90;;;7.50;99.90;;;;;;5077085;28;20237;-82
2024/03/12 10:11:27;;;;;;;0.60;0.60;;;7.50;99.90;;;;;;5081554;28;20615;-82
2024/03/12 10:13:56;;;;;;;5.85;1.08;;;7.60;99.90;;;;;;5080879;28;20190;-82
2024/03/12 10:16:25;;;;;;;0.60;0.60;;;7.50;99.90;;;;;;5081446;28;20199;-82
2024/03/12 10:19:11;;;;;;;8.02;2.97;;;7.50;99.90;;;;;;5081341;28;20223;-81
2024/03/12 10:21:40;;;;;;;4.13;3.92;;;7.50;99.90;;;;;;5065090;28;20195;-82
2024/03/12 10:24:13;;;;;;;4.10;3.75;;;7.60;99.90;;;;;;5080981;28;20191;-83
2024/03/12 10:26:45;;;;;;;25.75;2.65;;;7.70;99.90;;;;;;5072946;28;20190;-81
2024/03/12 10:29:18;;;;;;;0.50;0.50;;;7.60;99.90;;;;;;5079841;28;20493;-83
2024/03/12 10:31:45;;;;;;;4.80;2.95;;;7.70;99.90;;;;;;5080603;28;20191;-81
2024/03/12 10:34:17;;;;;;;8.95;6.93;;;7.70;99.90;;;;;;5080301;28;20195;-82
2024/03/12 10:36:49;;;;;;;0.50;0.50;;;7.70;99.90;;;;;;5070286;28;20281;-82
2024/03/12 10:39:27;;;;;;;1.10;1.05;;;7.60;99.90;;;;;;5058019;28;20222;-81
2024/03/12 10:41:57;;;;;;;6.45;5.18;;;7.60;99.90;;;;;;5062463;28;20191;-81
2024/03/12 10:44:24;;;;;;;1.85;1.75;;;7.60;99.90;;;;;;5060212;28;20202;-81
2024/03/12 10:46:53;;;;;;;20.23;11.32;;;7.60;99.90;;;;;;5059251;28;20206;-82
2024/03/12 10:49:27;;;;;;;4.50;4.30;;;7.60;99.90;;;;;;5059385;28;20191;-82
2024/03/12 10:51:54;;;;;;;4.93;1.73;;;7.50;99.90;;;;;;5062059;28;20290;-82
2024/03/12 10:54:22;;;;;;;4.35;3.00;;;7.50;99.90;;;;;;5065526;28;20197;-81
2024/03/12 10:56:51;;;;;;;2.28;2.17;;;7.50;99.90;;;;;;5069980;28;20226;-80
2024/03/12 10:59:22;;;;;;;6.43;5.20;;;7.60;99.90;;;;;;5078325;28;20214;-81
2024/03/12 11:01:49;;;;;;;0.60;0.60;;;7.60;99.90;;;;;;5075351;28;20190;-80
2024/03/12 11:04:17;;;;;;;3.75;3.40;;;7.60;99.90;;;;;;5071390;28;20217;-81
2024/03/12 11:06:50;;;;;;;13.90;5.05;;;7.70;99.90;;;;;;5076474;28;20238;-81
2024/03/12 11:09:21;;;;;;;7.80;5.40;;;7.70;99.90;;;;;;5076566;28;20261;-85
2024/03/12 11:11:49;;;;;;;15.00;2.67;;;7.70;99.90;;;;;;5077429;28;20202;-81
2024/03/12 11:14:16;;;;;;;5.15;4.65;;;7.70;99.90;;;;;;5061917;28;20206;-82
2024/03/12 11:16:44;;;;;;;2.30;2.15;;;7.70;99.90;;;;;;5056101;28;20275;-82
2024/03/12 11:19:20;;;;;;;9.55;4.25;;;7.80;99.90;;;;;;5055036;28;20210;-82
2024/03/12 11:21:49;;;;;;;5.38;4.68;;;7.80;99.90;;;;;;5069039;28;20194;-83
2024/03/12 11:24:26;;;;;;;16.85;5.57;;;7.80;99.90;;;;;;5059612;28;20195;-82
2024/03/12 11:26:54;;;;;;;0.95;0.95;;;7.80;99.90;;;;;;5072153;28;20221;-81
2024/03/12 11:29:37;;;;;;;4.03;2.25;;;7.80;99.90;;;;;;5063688;28;20206;-82
2024/03/12 11:32:05;;;;;;;10.85;5.47;;;7.90;99.90;;;;;;5069287;28;20196;-82
2024/03/12 11:34:32;;;;;;;6.80;5.43;;;8.00;99.90;;;;;;5078586;28;20198;-82
2024/03/12 11:37:14;;;;;;;1.02;1.02;;;8.00;99.90;;;;;;5077333;28;20191;-82
2024/03/12 11:39:42;;;;;;;3.00;1.88;;;8.00;99.90;;;;;;5059562;28;20261;-82
2024/03/12 11:42:15;;;;;;;15.85;8.77;;;8.00;99.90;;;;;;5058652;28;20195;-82
2024/03/12 11:44:48;;;;;;;2.58;2.38;;;8.10;99.90;;;;;;5056871;28;20705;-81
2024/03/12 11:47:34;;;;;;;12.30;7.40;;;8.20;99.90;;;;;;5058155;28;20214;-82
2024/03/12 11:50:02;;;;;;;7.68;5.82;;;8.30;99.90;;;;;;5071255;28;20186;-83
2024/03/12 11:52:31;;;;;;;3.20;2.72;;;8.40;99.90;;;;;;5077994;28;20252;-83
2024/03/12 11:55:03;;;;;;;8.88;4.68;;;8.60;99.90;;;;;;5077749;28;20190;-82
2024/03/12 11:57:31;;;;;;;8.82;6.43;;;8.90;99.90;;;;;;5078149;28;20301;-81
2024/03/12 12:00:01;;;;;;;1.50;1.40;;;9.10;99.90;;;;;;5077016;28;20217;-81
2024/03/12 12:02:28;;;;;;;8.57;5.50;;;9.50;99.90;;;;;;5078175;28;20726;-82
2024/03/12 12:04:57;;;;;;;14.23;7.47;;;9.40;99.90;;;;;;5078664;28;20439;-82
2024/03/12 12:07:27;;;;;;;23.15;11.50;;;9.30;99.90;;;;;;5077784;28;20225;-82
2024/03/12 12:09:57;;;;;;;2.00;1.90;;;9.10;99.90;;;;;;5076914;28;20672;-83
2024/03/12 12:12:24;;;;;;;19.95;10.80;;;9.00;99.90;;;;;;5078466;28;20186;-82
2024/03/12 12:14:52;;;;;;;21.63;12.85;;;8.90;99.90;;;;;;5081827;28;20288;-83
2024/03/12 12:17:23;;;;;;;2.17;2.08;;;8.60;99.90;;;;;;5083821;28;20236;-83
2024/03/12 12:20:13;;;;;;;4.80;2.63;;;8.50;99.90;;;;;;5081337;28;20214;-82
2024/03/12 12:22:44;;;;;;;3.08;2.45;;;8.40;99.90;;;;;;5081609;28;20205;-82
2024/03/12 12:25:13;;;;;;;9.55;6.50;;;8.50;99.90;;;;;;5068331;28;20198;-81
2024/03/12 12:27:41;;;;;;;5.88;3.25;;;8.40;99.90;;;;;;5061364;28;20218;-83
2024/03/12 12:30:11;;;;;;;11.02;8.38;;;8.40;99.90;;;;;;5061610;28;20191;-81
2024/03/12 12:32:40;;;;;;;25.65;9.65;;;8.50;99.90;;;;;;5062547;28;20223;-82
2024/03/12 12:35:11;;;;;;;11.70;7.50;;;8.60;99.90;;;;;;5062253;28;20202;-82
2024/03/12 12:37:39;;;;;;;4.38;3.80;;;8.70;99.90;;;;;;5061986;28;20211;-83
2024/03/12 12:40:09;;;;;;;8.43;6.68;;;8.80;99.90;;;;;;5059759;28;20594;-82
2024/03/12 12:42:39;;;;;;;4.78;2.08;;;9.00;99.90;;;;;;5071269;28;20191;-84
2024/03/12 12:45:08;;;;;;;3.20;2.67;;;9.10;99.90;;;;;;5081514;28;20259;-83
2024/03/12 12:47:35;;;;;;;14.23;8.35;;;9.20;99.90;;;;;;5072807;28;20246;-83
2024/03/12 12:50:04;;;;;;;5.38;4.70;;;9.30;99.90;;;;;;5061918;28;20195;-83
2024/03/12 12:52:31;;;;;;;3.40;3.15;;;9.40;99.90;;;;;;5078188;28;20230;-82
2024/03/12 12:55:00;;;;;;;13.57;8.20;;;9.40;99.90;;;;;;5081131;28;20191;-83
2024/03/12 12:57:34;;;;;;;8.43;4.40;;;9.60;99.90;;;;;;5080951;28;20557;-82
2024/03/12 13:00:15;;;;;;;12.98;6.45;;;9.70;99.90;;;;;;5081151;28;20685;-83
2024/03/12 13:02:45;;;;;;;0.70;0.70;;;9.70;99.90;;;;;;5081853;28;20194;-82
2024/03/12 13:05:20;;;;;;;5.47;3.63;;;9.70;99.90;;;;;;5080804;28;20439;-82
2024/03/12 13:07:46;;;;;;;9.50;2.93;;;9.70;99.90;;;;;;5080585;28;20264;-82